createdAt,value
2017-01-28T00:00:12.736Z,956.19
2017-01-28T00:01:13.567Z,956.14
2017-01-28T00:02:12.989Z,956.12
2017-01-28T00:03:12.639Z,956.14
2017-01-28T00:04:13.468Z,956.09
2017-01-28T00:05:14.355Z,956.11
2017-01-28T00:06:12.579Z,956.08
2017-01-28T00:07:11.978Z,956.08
2017-01-28T00:08:11.933Z,956.09
2017-01-28T00:09:12.044Z,956.11
2017-01-28T00:10:12.035Z,956.06
2017-01-28T00:11:13.908Z,956.06
2017-01-28T00:12:12.527Z,956.07
2017-01-28T00:13:12.579Z,956.03
2017-01-28T00:14:12.635Z,956.00
2017-01-28T00:15:13.589Z,956.00
2017-01-28T00:16:13.863Z,955.98
2017-01-28T00:17:12.106Z,955.97
2017-01-28T00:18:12.839Z,956.01
2017-01-28T00:19:13.599Z,956.00
2017-01-28T00:20:14.014Z,956.05
2017-01-28T00:21:12.686Z,956.02
2017-01-28T00:22:14.515Z,956.01
2017-01-28T00:23:13.109Z,956.04
2017-01-28T00:24:12.340Z,956.04
2017-01-28T00:25:13.109Z,956.02
2017-01-28T00:26:13.181Z,956.01
2017-01-28T00:27:12.408Z,956.00
2017-01-28T00:28:12.611Z,956.07
2017-01-28T00:29:13.788Z,956.06
2017-01-28T00:30:12.075Z,956.10
2017-01-28T00:31:12.232Z,956.15
2017-01-28T00:32:13.154Z,956.15
2017-01-28T00:33:10.990Z,956.11
2017-01-28T00:34:12.716Z,956.14
2017-01-28T00:35:13.395Z,956.10
2017-01-28T00:36:12.461Z,956.06
2017-01-28T00:37:12.640Z,956.03
2017-01-28T00:38:13.350Z,956.04
2017-01-28T00:39:12.922Z,956.03
2017-01-28T00:40:12.862Z,956.03
2017-01-28T00:41:13.449Z,956.02
2017-01-28T00:42:12.623Z,956.06
2017-01-28T00:43:13.233Z,956.03
2017-01-28T00:44:13.406Z,956.01
2017-01-28T00:45:13.399Z,956.02
2017-01-28T00:46:12.481Z,956.01
2017-01-28T00:47:12.532Z,956.07
2017-01-28T00:48:12.955Z,956.03
2017-01-28T00:49:12.663Z,956.02
2017-01-28T00:50:13.522Z,955.96
2017-01-28T00:51:12.536Z,956.01
2017-01-28T00:52:11.675Z,956.01
2017-01-28T00:53:13.151Z,956.00
2017-01-28T00:54:12.935Z,956.03
2017-01-28T00:55:14.510Z,956.05
2017-01-28T00:56:12.581Z,956.09
2017-01-28T00:57:10.728Z,956.04
2017-01-28T00:58:12.013Z,956.05
2017-01-28T00:59:14.594Z,956.04
2017-01-28T01:00:14.424Z,956.05
2017-01-28T01:01:13.012Z,956.07
2017-01-28T01:02:09.654Z,956.07
2017-01-28T01:03:12.002Z,956.02
2017-01-28T01:04:15.944Z,956.05
2017-01-28T01:05:12.120Z,956.02
2017-01-28T01:06:11.175Z,956.04
2017-01-28T01:07:13.003Z,956.07
2017-01-28T01:08:13.774Z,956.10
2017-01-28T01:09:12.951Z,956.07
2017-01-28T01:10:14.127Z,956.06
2017-01-28T01:11:13.892Z,956.06
2017-01-28T01:12:12.405Z,956.03
2017-01-28T01:13:14.434Z,956.01
2017-01-28T01:14:15.901Z,956.01
2017-01-28T01:15:11.064Z,956.04
2017-01-28T01:16:12.847Z,956.01
2017-01-28T01:17:12.466Z,956.02
2017-01-28T01:18:13.638Z,956.03
2017-01-28T01:19:13.674Z,956.09
2017-01-28T01:20:13.066Z,956.04
2017-01-28T01:21:13.967Z,956.01
2017-01-28T01:22:12.809Z,956.03
2017-01-28T01:23:12.442Z,956.06
2017-01-28T01:24:11.450Z,956.05
2017-01-28T01:25:13.168Z,956.02
2017-01-28T01:26:11.531Z,956.04
2017-01-28T01:27:13.858Z,956.03
2017-01-28T01:28:10.568Z,956.05
2017-01-28T01:29:12.803Z,956.06
2017-01-28T01:30:12.004Z,956.04
2017-01-28T01:31:12.753Z,956.06
2017-01-28T01:32:12.491Z,956.08
2017-01-28T01:33:12.513Z,956.03
2017-01-28T01:34:13.173Z,955.99
2017-01-28T01:35:12.898Z,955.96
2017-01-28T01:36:12.687Z,955.96
2017-01-28T01:37:13.122Z,955.98
2017-01-28T01:38:14.378Z,955.99
2017-01-28T01:39:13.484Z,956.02
2017-01-28T01:40:13.692Z,955.98
2017-01-28T01:41:13.412Z,956.02
2017-01-28T01:42:15.274Z,955.95
2017-01-28T01:43:13.197Z,956.03
2017-01-28T01:44:12.202Z,955.95
2017-01-28T01:45:12.230Z,956.00
2017-01-28T01:46:12.917Z,956.01
2017-01-28T01:47:13.033Z,955.98
2017-01-28T01:48:12.252Z,956.04
2017-01-28T01:49:12.985Z,956.03
2017-01-28T01:50:12.540Z,956.02
2017-01-28T01:51:13.246Z,956.00
2017-01-28T01:52:13.438Z,955.95
2017-01-28T01:53:13.239Z,955.90
2017-01-28T01:54:13.468Z,955.89
2017-01-28T01:55:13.429Z,955.89
2017-01-28T01:56:13.589Z,955.84
2017-01-28T01:57:14.379Z,955.86
2017-01-28T01:58:13.122Z,955.88
2017-01-28T01:59:13.982Z,955.92
2017-01-28T02:00:13.194Z,955.92
2017-01-28T02:01:13.301Z,955.91
2017-01-28T02:02:12.332Z,955.92
2017-01-28T02:03:12.572Z,955.90
2017-01-28T02:04:10.896Z,955.88
2017-01-28T02:05:11.884Z,955.87
2017-01-28T02:06:12.443Z,955.84
2017-01-28T02:07:13.428Z,955.92
2017-01-28T02:08:13.904Z,955.88
2017-01-28T02:09:11.975Z,955.89
2017-01-28T02:10:12.650Z,955.90
2017-01-28T02:11:13.411Z,955.91
2017-01-28T02:12:14.951Z,955.88
2017-01-28T02:13:12.226Z,955.85
2017-01-28T02:14:12.505Z,955.87
2017-01-28T02:15:12.649Z,955.90
2017-01-28T02:16:15.125Z,955.86
2017-01-28T02:17:12.325Z,955.87
2017-01-28T02:18:13.978Z,955.88
2017-01-28T02:19:13.806Z,955.88
2017-01-28T02:20:11.993Z,955.95
2017-01-28T02:21:12.626Z,955.90
2017-01-28T02:22:13.746Z,955.88
2017-01-28T02:23:15.462Z,955.90
2017-01-28T02:24:13.896Z,955.90
2017-01-28T02:25:12.036Z,955.88
2017-01-28T02:26:11.187Z,955.90
2017-01-28T02:27:14.433Z,955.87
2017-01-28T02:28:13.202Z,955.92
2017-01-28T02:29:12.317Z,955.94
2017-01-28T02:30:13.069Z,955.93
2017-01-28T02:31:12.732Z,955.93
2017-01-28T02:32:12.808Z,955.90
2017-01-28T02:33:10.448Z,955.93
2017-01-28T02:34:12.690Z,955.96
2017-01-28T02:35:13.257Z,955.96
2017-01-28T02:36:12.905Z,955.94
2017-01-28T02:37:13.091Z,955.91
2017-01-28T02:38:12.617Z,955.93
2017-01-28T02:39:12.420Z,955.94
2017-01-28T02:40:12.778Z,955.96
2017-01-28T02:41:12.793Z,955.95
2017-01-28T02:42:12.338Z,955.92
2017-01-28T02:43:14.045Z,955.97
2017-01-28T02:44:11.929Z,955.94
2017-01-28T02:45:12.354Z,955.95
2017-01-28T02:46:14.380Z,955.89
2017-01-28T02:47:14.316Z,955.89
2017-01-28T02:48:12.981Z,955.88
2017-01-28T02:49:12.545Z,955.89
2017-01-28T02:50:12.764Z,955.92
2017-01-28T02:51:11.926Z,955.92
2017-01-28T02:52:12.149Z,955.90
2017-01-28T02:53:13.737Z,955.87
2017-01-28T02:54:13.975Z,955.86
2017-01-28T02:55:12.041Z,955.83
2017-01-28T02:56:10.859Z,955.81
2017-01-28T02:57:12.761Z,955.84
2017-01-28T02:58:12.530Z,955.84
2017-01-28T02:59:14.514Z,955.91
2017-01-28T03:00:12.745Z,955.90
2017-01-28T03:01:10.401Z,955.94
2017-01-28T03:02:12.414Z,955.90
2017-01-28T03:03:14.038Z,955.93
2017-01-28T03:04:12.792Z,955.94
2017-01-28T03:05:12.582Z,955.93
2017-01-28T03:06:13.575Z,955.87
2017-01-28T03:07:14.095Z,955.91
2017-01-28T03:08:13.050Z,955.89
2017-01-28T03:09:12.394Z,955.89
2017-01-28T03:10:12.873Z,955.86
2017-01-28T03:11:12.028Z,955.80
2017-01-28T03:12:12.067Z,955.80
2017-01-28T03:13:13.749Z,955.82
2017-01-28T03:14:12.957Z,955.84
2017-01-28T03:15:12.010Z,955.78
2017-01-28T03:16:11.962Z,955.77
2017-01-28T03:17:12.967Z,955.75
2017-01-28T03:18:12.519Z,955.76
2017-01-28T03:19:13.175Z,955.75
2017-01-28T03:20:12.347Z,955.74
2017-01-28T03:21:12.918Z,955.81
2017-01-28T03:22:12.134Z,955.77
2017-01-28T03:23:12.321Z,955.76
2017-01-28T03:24:11.409Z,955.77
2017-01-28T03:25:12.843Z,955.74
2017-01-28T03:26:11.870Z,955.76
2017-01-28T03:27:12.635Z,955.77
2017-01-28T03:28:13.151Z,955.80
2017-01-28T03:29:12.362Z,955.78
2017-01-28T03:30:12.568Z,955.82
2017-01-28T03:31:13.614Z,955.81
2017-01-28T03:32:13.499Z,955.83
2017-01-28T03:33:13.556Z,955.79
2017-01-28T03:34:13.386Z,955.78
2017-01-28T03:35:13.333Z,955.81
2017-01-28T03:36:13.102Z,955.81
2017-01-28T03:37:12.779Z,955.87
2017-01-28T03:38:11.825Z,955.78
2017-01-28T03:39:11.893Z,955.84
2017-01-28T03:40:11.310Z,955.81
2017-01-28T03:41:12.936Z,955.80
2017-01-28T03:42:12.058Z,955.83
2017-01-28T03:43:10.999Z,955.78
2017-01-28T03:44:11.104Z,955.82
2017-01-28T03:45:13.237Z,955.89
2017-01-28T03:46:12.362Z,955.92
2017-01-28T03:47:12.663Z,955.93
2017-01-28T03:48:12.506Z,955.94
2017-01-28T03:49:11.252Z,955.90
2017-01-28T03:50:12.955Z,955.91
2017-01-28T03:51:12.637Z,955.89
2017-01-28T03:52:12.797Z,955.89
2017-01-28T03:53:11.734Z,955.90
2017-01-28T03:54:13.834Z,955.90
2017-01-28T03:55:12.041Z,955.92
2017-01-28T03:56:12.731Z,955.92
2017-01-28T03:57:13.495Z,955.95
2017-01-28T03:58:13.445Z,955.93
2017-01-28T03:59:14.067Z,955.96
2017-01-28T04:00:14.158Z,956.01
2017-01-28T04:01:12.688Z,956.02
2017-01-28T04:02:11.678Z,956.01
2017-01-28T04:03:12.871Z,956.00
2017-01-28T04:04:12.939Z,956.00
2017-01-28T04:05:11.962Z,955.99
2017-01-28T04:06:11.342Z,955.97
2017-01-28T04:07:12.867Z,955.90
2017-01-28T04:08:12.101Z,955.96
2017-01-28T04:09:12.789Z,955.98
2017-01-28T04:10:13.639Z,956.00
2017-01-28T04:11:13.901Z,956.05
2017-01-28T04:12:10.115Z,956.02
2017-01-28T04:13:12.888Z,956.00
2017-01-28T04:14:12.868Z,956.07
2017-01-28T04:15:12.457Z,956.06
2017-01-28T04:16:09.897Z,956.04
2017-01-28T04:17:13.450Z,956.05
2017-01-28T04:18:12.673Z,956.05
2017-01-28T04:19:12.310Z,956.03
2017-01-28T04:20:12.278Z,956.06
2017-01-28T04:21:12.321Z,956.06
2017-01-28T04:22:13.183Z,956.11
2017-01-28T04:23:12.944Z,956.03
2017-01-28T04:24:12.608Z,956.00
2017-01-28T04:25:11.634Z,955.98
2017-01-28T04:26:12.540Z,955.92
2017-01-28T04:27:12.714Z,955.98
2017-01-28T04:28:13.792Z,956.04
2017-01-28T04:29:11.927Z,956.05
2017-01-28T04:30:13.665Z,956.06
2017-01-28T04:31:14.136Z,956.06
2017-01-28T04:32:12.789Z,955.99
2017-01-28T04:33:13.132Z,956.04
2017-01-28T04:34:12.223Z,956.06
2017-01-28T04:35:13.283Z,956.05
2017-01-28T04:36:13.426Z,956.10
2017-01-28T04:37:12.563Z,956.13
2017-01-28T04:38:15.204Z,956.16
2017-01-28T04:39:13.430Z,956.16
2017-01-28T04:40:13.121Z,956.08
2017-01-28T04:41:11.005Z,956.06
2017-01-28T04:42:11.357Z,955.98
2017-01-28T04:43:12.289Z,956.00
2017-01-28T04:44:12.151Z,956.08
2017-01-28T04:45:14.052Z,956.13
2017-01-28T04:46:12.786Z,956.10
2017-01-28T04:47:11.801Z,956.13
2017-01-28T04:48:11.872Z,956.02
2017-01-28T04:49:11.970Z,955.97
2017-01-28T04:50:13.032Z,956.00
2017-01-28T04:51:12.111Z,956.07
2017-01-28T04:52:13.255Z,956.13
2017-01-28T04:53:12.849Z,956.13
2017-01-28T04:54:11.811Z,956.07
2017-01-28T04:55:11.840Z,956.04
2017-01-28T04:56:12.495Z,956.07
2017-01-28T04:57:13.291Z,956.08
2017-01-28T04:58:12.879Z,956.09
2017-01-28T04:59:12.048Z,956.08
2017-01-28T05:00:12.773Z,956.07
2017-01-28T05:01:14.474Z,956.05
2017-01-28T05:02:13.254Z,956.07
2017-01-28T05:03:12.888Z,956.02
2017-01-28T05:04:10.984Z,956.03
2017-01-28T05:05:12.535Z,956.04
2017-01-28T05:06:13.997Z,956.12
2017-01-28T05:07:12.338Z,956.10
2017-01-28T05:08:13.027Z,956.10
2017-01-28T05:09:12.218Z,956.08
2017-01-28T05:10:12.283Z,956.08
2017-01-28T05:11:13.154Z,956.14
2017-01-28T05:12:12.925Z,956.14
2017-01-28T05:13:12.164Z,956.13
2017-01-28T05:14:12.712Z,956.16
2017-01-28T05:15:11.856Z,956.10
2017-01-28T05:16:11.981Z,956.17
2017-01-28T05:17:12.900Z,956.17
2017-01-28T05:18:13.632Z,956.16
2017-01-28T05:19:14.620Z,956.16
2017-01-28T05:20:12.868Z,956.16
2017-01-28T05:21:13.219Z,956.13
2017-01-28T05:22:12.316Z,956.08
2017-01-28T05:23:13.822Z,956.08
2017-01-28T05:24:12.520Z,956.10
2017-01-28T05:25:16.322Z,956.11
2017-01-28T05:26:16.735Z,956.12
2017-01-28T05:27:12.901Z,956.16
2017-01-28T05:28:10.329Z,956.21
2017-01-28T05:29:12.981Z,956.18
2017-01-28T05:30:12.912Z,956.15
2017-01-28T05:31:12.501Z,956.17
2017-01-28T05:32:13.179Z,956.13
2017-01-28T05:33:12.917Z,956.14
2017-01-28T05:34:12.738Z,956.16
2017-01-28T05:35:13.488Z,956.14
2017-01-28T05:36:12.628Z,956.16
2017-01-28T05:37:12.752Z,956.16
2017-01-28T05:38:11.821Z,956.18
2017-01-28T05:39:13.801Z,956.21
2017-01-28T05:40:12.381Z,956.20
2017-01-28T05:41:12.469Z,956.19
2017-01-28T05:42:13.562Z,956.17
2017-01-28T05:43:12.640Z,956.18
2017-01-28T05:44:11.365Z,956.20
2017-01-28T05:45:13.491Z,956.17
2017-01-28T05:46:14.256Z,956.16
2017-01-28T05:47:12.733Z,956.14
2017-01-28T05:48:12.807Z,956.16
2017-01-28T05:49:11.876Z,956.17
2017-01-28T05:50:12.004Z,956.16
2017-01-28T05:51:12.067Z,956.15
2017-01-28T05:52:12.750Z,956.19
2017-01-28T05:53:14.391Z,956.17
2017-01-28T05:54:12.488Z,956.17
2017-01-28T05:55:13.239Z,956.19
2017-01-28T05:56:12.309Z,956.19
2017-01-28T05:57:13.333Z,956.21
2017-01-28T05:58:12.523Z,956.24
2017-01-28T05:59:13.559Z,956.28
2017-01-28T06:00:14.549Z,956.26
2017-01-28T06:01:12.521Z,956.23
2017-01-28T06:02:12.563Z,956.25
2017-01-28T06:03:13.147Z,956.22
2017-01-28T06:04:12.358Z,956.26
2017-01-28T06:05:13.849Z,956.20
2017-01-28T06:06:12.030Z,956.20
2017-01-28T06:07:13.030Z,956.22
2017-01-28T06:08:13.420Z,956.20
2017-01-28T06:09:11.369Z,956.22
2017-01-28T06:10:12.591Z,956.22
2017-01-28T06:11:12.773Z,956.21
2017-01-28T06:12:13.261Z,956.24
2017-01-28T06:13:12.336Z,956.26
2017-01-28T06:14:13.009Z,956.23
2017-01-28T06:15:12.758Z,956.25
2017-01-28T06:16:10.241Z,956.25
2017-01-28T06:17:12.852Z,956.30
2017-01-28T06:18:11.896Z,956.30
2017-01-28T06:19:11.888Z,956.26
2017-01-28T06:20:12.687Z,956.26
2017-01-28T06:21:14.541Z,956.25
2017-01-28T06:22:12.612Z,956.24
2017-01-28T06:23:11.645Z,956.23
2017-01-28T06:24:12.582Z,956.25
2017-01-28T06:25:13.321Z,956.24
2017-01-28T06:26:12.959Z,956.21
2017-01-28T06:27:12.051Z,956.16
2017-01-28T06:28:12.809Z,956.20
2017-01-28T06:29:11.728Z,956.22
2017-01-28T06:30:12.357Z,956.20
2017-01-28T06:31:13.028Z,956.21
2017-01-28T06:32:13.460Z,956.23
2017-01-28T06:33:13.127Z,956.30
2017-01-28T06:34:13.847Z,956.29
2017-01-28T06:35:11.790Z,956.32
2017-01-28T06:36:14.728Z,956.33
2017-01-28T06:37:13.941Z,956.33
2017-01-28T06:38:12.129Z,956.26
2017-01-28T06:39:12.401Z,956.25
2017-01-28T06:40:13.204Z,956.29
2017-01-28T06:41:12.815Z,956.27
2017-01-28T06:42:11.787Z,956.27
2017-01-28T06:43:13.215Z,956.31
2017-01-28T06:44:12.368Z,956.32
2017-01-28T06:45:12.479Z,956.29
2017-01-28T06:46:12.550Z,956.33
2017-01-28T06:47:12.515Z,956.28
2017-01-28T06:48:12.701Z,956.27
2017-01-28T06:49:13.271Z,956.29
2017-01-28T06:50:12.926Z,956.31
2017-01-28T06:51:11.867Z,956.38
2017-01-28T06:52:11.987Z,956.37
2017-01-28T06:53:12.440Z,956.39
2017-01-28T06:54:12.608Z,956.41
2017-01-28T06:55:13.431Z,956.44
2017-01-28T06:56:14.356Z,956.46
2017-01-28T06:57:11.495Z,956.44
2017-01-28T06:58:12.953Z,956.40
2017-01-28T06:59:12.627Z,956.40
2017-01-28T07:00:14.271Z,956.43
2017-01-28T07:01:13.128Z,956.39
2017-01-28T07:02:12.729Z,956.40
2017-01-28T07:03:12.289Z,956.43
2017-01-28T07:04:12.326Z,956.47
2017-01-28T07:05:13.960Z,956.48
2017-01-28T07:06:12.732Z,956.50
2017-01-28T07:07:13.628Z,956.48
2017-01-28T07:08:14.081Z,956.51
2017-01-28T07:09:12.202Z,956.46
2017-01-28T07:10:13.006Z,956.49
2017-01-28T07:11:12.011Z,956.43
2017-01-28T07:12:11.991Z,956.44
2017-01-28T07:13:12.108Z,956.43
2017-01-28T07:14:12.625Z,956.45
2017-01-28T07:15:13.352Z,956.47
2017-01-28T07:16:12.981Z,956.48
2017-01-28T07:17:13.047Z,956.47
2017-01-28T07:18:12.116Z,956.49
2017-01-28T07:19:12.126Z,956.47
2017-01-28T07:20:13.133Z,956.47
2017-01-28T07:21:12.307Z,956.50
2017-01-28T07:22:12.887Z,956.49
2017-01-28T07:23:11.815Z,956.49
2017-01-28T07:24:12.522Z,956.53
2017-01-28T07:25:12.521Z,956.54
2017-01-28T07:26:13.266Z,956.58
2017-01-28T07:27:12.847Z,956.57
2017-01-28T07:28:12.051Z,956.57
2017-01-28T07:29:11.140Z,956.61
2017-01-28T07:30:12.249Z,956.60
2017-01-28T07:31:11.225Z,956.62
2017-01-28T07:32:13.756Z,956.59
2017-01-28T07:33:10.470Z,956.60
2017-01-28T07:34:09.188Z,956.59
2017-01-28T07:35:11.191Z,956.65
2017-01-28T07:36:12.181Z,956.68
2017-01-28T07:37:13.487Z,956.67
2017-01-28T07:38:12.578Z,956.72
2017-01-28T07:39:14.380Z,956.65
2017-01-28T07:40:13.214Z,956.68
2017-01-28T07:41:12.722Z,956.69
2017-01-28T07:42:12.760Z,956.69
2017-01-28T07:43:12.502Z,956.71
2017-01-28T07:44:13.226Z,956.70
2017-01-28T07:45:12.340Z,956.68
2017-01-28T07:46:12.998Z,956.67
2017-01-28T07:47:12.581Z,956.67
2017-01-28T07:48:13.219Z,956.64
2017-01-28T07:49:12.930Z,956.65
2017-01-28T07:50:12.780Z,956.64
2017-01-28T07:51:12.470Z,956.69
2017-01-28T07:52:12.987Z,956.67
2017-01-28T07:53:12.834Z,956.67
2017-01-28T07:54:13.478Z,956.64
2017-01-28T07:55:12.539Z,956.68
2017-01-28T07:56:13.461Z,956.66
2017-01-28T07:57:11.358Z,956.68
2017-01-28T07:58:12.368Z,956.71
2017-01-28T07:59:13.170Z,956.69
2017-01-28T08:00:12.964Z,956.71
2017-01-28T08:01:12.891Z,956.69
2017-01-28T08:02:12.055Z,956.68
2017-01-28T08:03:11.168Z,956.68
2017-01-28T08:04:12.767Z,956.61
2017-01-28T08:05:13.497Z,956.65
2017-01-28T08:06:11.493Z,956.66
2017-01-28T08:07:12.716Z,956.68
2017-01-28T08:08:10.830Z,956.68
2017-01-28T08:09:11.125Z,956.71
2017-01-28T08:10:13.580Z,956.74
2017-01-28T08:11:11.585Z,956.74
2017-01-28T08:12:13.665Z,956.73
2017-01-28T08:13:13.450Z,956.75
2017-01-28T08:14:13.082Z,956.68
2017-01-28T08:15:12.879Z,956.73
2017-01-28T08:16:12.036Z,956.76
2017-01-28T08:17:12.748Z,956.71
2017-01-28T08:18:13.580Z,956.67
2017-01-28T08:19:13.187Z,956.69
2017-01-28T08:20:12.778Z,956.68
2017-01-28T08:21:11.863Z,956.68
2017-01-28T08:22:12.392Z,956.66
2017-01-28T08:23:14.276Z,956.68
2017-01-28T08:24:12.966Z,956.67
2017-01-28T08:25:10.389Z,956.65
2017-01-28T08:26:12.987Z,956.68
2017-01-28T08:27:12.703Z,956.66
2017-01-28T08:28:14.259Z,956.66
2017-01-28T08:29:12.362Z,956.64
2017-01-28T08:30:13.086Z,956.65
2017-01-28T08:31:12.769Z,956.68
2017-01-28T08:32:11.998Z,956.67
2017-01-28T08:33:13.220Z,956.67
2017-01-28T08:34:13.003Z,956.71
2017-01-28T08:35:12.605Z,956.71
2017-01-28T08:36:12.658Z,956.69
2017-01-28T08:37:13.279Z,956.68
2017-01-28T08:38:12.532Z,956.73
2017-01-28T08:39:12.584Z,956.74
2017-01-28T08:40:12.719Z,956.72
2017-01-28T08:41:13.659Z,956.76
2017-01-28T08:42:13.289Z,956.81
2017-01-28T08:43:15.125Z,956.74
2017-01-28T08:44:12.631Z,956.71
2017-01-28T08:45:12.800Z,956.71
2017-01-28T08:46:12.437Z,956.79
2017-01-28T08:47:11.583Z,956.78
2017-01-28T08:48:13.300Z,956.74
2017-01-28T08:49:13.969Z,956.82
2017-01-28T08:50:12.682Z,956.81
2017-01-28T08:51:12.801Z,956.74
2017-01-28T08:52:11.789Z,956.71
2017-01-28T08:53:12.599Z,956.78
2017-01-28T08:54:13.219Z,956.76
2017-01-28T08:55:12.731Z,956.77
2017-01-28T08:56:13.472Z,956.77
2017-01-28T08:57:13.184Z,956.77
2017-01-28T08:58:13.871Z,956.79
2017-01-28T08:59:12.593Z,956.85
2017-01-28T09:00:12.755Z,956.80
2017-01-28T09:01:11.965Z,956.74
2017-01-28T09:02:12.068Z,956.81
2017-01-28T09:03:12.698Z,956.77
2017-01-28T09:04:12.374Z,956.74
2017-01-28T09:05:12.517Z,956.77
2017-01-28T09:06:11.411Z,956.79
2017-01-28T09:07:13.309Z,956.79
2017-01-28T09:08:12.389Z,956.83
2017-01-28T09:09:12.978Z,956.85
2017-01-28T09:10:13.660Z,956.85
2017-01-28T09:11:12.772Z,956.90
2017-01-28T09:12:11.762Z,956.91
2017-01-28T09:13:12.560Z,956.89
2017-01-28T09:14:13.260Z,956.88
2017-01-28T09:15:12.925Z,956.93
2017-01-28T09:16:12.712Z,956.97
2017-01-28T09:17:12.932Z,956.97
2017-01-28T09:18:12.842Z,956.92
2017-01-28T09:19:11.980Z,956.96
2017-01-28T09:20:11.892Z,956.93
2017-01-28T09:21:12.895Z,957.00
2017-01-28T09:22:12.051Z,956.99
2017-01-28T09:23:13.150Z,957.00
2017-01-28T09:24:10.857Z,956.97
2017-01-28T09:25:13.200Z,957.01
2017-01-28T09:26:12.085Z,957.02
2017-01-28T09:27:12.146Z,957.00
2017-01-28T09:28:14.328Z,957.00
2017-01-28T09:29:13.120Z,956.97
2017-01-28T09:30:11.429Z,956.98
2017-01-28T09:31:12.977Z,957.02
2017-01-28T09:32:12.202Z,957.05
2017-01-28T09:33:13.895Z,957.01
2017-01-28T09:34:13.544Z,957.02
2017-01-28T09:35:13.423Z,957.03
2017-01-28T09:36:13.120Z,956.99
2017-01-28T09:37:13.057Z,956.99
2017-01-28T09:38:12.265Z,956.97
2017-01-28T09:39:11.131Z,956.94
2017-01-28T09:40:13.943Z,956.94
2017-01-28T09:41:12.410Z,956.99
2017-01-28T09:42:11.532Z,956.99
2017-01-28T09:43:12.551Z,956.98
2017-01-28T09:44:12.757Z,957.02
2017-01-28T09:45:14.547Z,956.94
2017-01-28T09:46:13.158Z,956.99
2017-01-28T09:47:11.149Z,957.00
2017-01-28T09:48:12.218Z,956.99
2017-01-28T09:49:13.169Z,957.00
2017-01-28T09:50:12.267Z,956.98
2017-01-28T09:51:11.476Z,957.00
2017-01-28T09:52:13.063Z,956.97
2017-01-28T09:53:12.667Z,957.03
2017-01-28T09:54:11.927Z,957.08
2017-01-28T09:55:12.430Z,957.09
2017-01-28T09:56:10.905Z,957.10
2017-01-28T09:57:12.124Z,957.12
2017-01-28T09:58:13.793Z,957.06
2017-01-28T09:59:11.777Z,956.96
2017-01-28T10:00:11.829Z,956.96
2017-01-28T10:01:13.572Z,957.01
2017-01-28T10:02:13.149Z,957.04
2017-01-28T10:03:12.885Z,957.07
2017-01-28T10:04:12.446Z,957.05
2017-01-28T10:05:11.310Z,957.04
2017-01-28T10:06:09.995Z,957.10
2017-01-28T10:07:12.820Z,957.05
2017-01-28T10:08:11.821Z,957.08
2017-01-28T10:09:12.311Z,957.10
2017-01-28T10:10:12.946Z,957.05
2017-01-28T10:11:12.270Z,957.04
2017-01-28T10:12:12.477Z,957.11
2017-01-28T10:13:12.610Z,957.14
2017-01-28T10:14:14.212Z,957.10
2017-01-28T10:15:13.042Z,957.13
2017-01-28T10:16:12.637Z,957.15
2017-01-28T10:17:13.280Z,957.15
2017-01-28T10:18:12.379Z,957.13
2017-01-28T10:19:14.165Z,957.12
2017-01-28T10:20:13.159Z,957.12
2017-01-28T10:21:13.110Z,957.13
2017-01-28T10:22:10.409Z,957.09
2017-01-28T10:23:11.320Z,957.07
2017-01-28T10:24:12.360Z,957.11
2017-01-28T10:25:12.570Z,957.10
2017-01-28T10:26:13.170Z,957.09
2017-01-28T10:27:12.996Z,957.07
2017-01-28T10:28:12.766Z,957.07
2017-01-28T10:29:12.466Z,957.13
2017-01-28T10:30:12.550Z,957.09
2017-01-28T10:31:13.295Z,957.09
2017-01-28T10:32:12.279Z,957.08
2017-01-28T10:33:13.912Z,957.07
2017-01-28T10:34:12.522Z,957.06
2017-01-28T10:35:14.435Z,957.07
2017-01-28T10:36:13.001Z,957.08
2017-01-28T10:37:12.442Z,957.00
2017-01-28T10:38:13.212Z,956.99
2017-01-28T10:39:12.857Z,957.01
2017-01-28T10:40:12.519Z,956.94
2017-01-28T10:41:12.780Z,956.96
2017-01-28T10:42:12.222Z,956.94
2017-01-28T10:43:13.156Z,956.97
2017-01-28T10:44:12.186Z,956.95
2017-01-28T10:45:12.888Z,956.94
2017-01-28T10:46:12.066Z,956.96
2017-01-28T10:47:12.619Z,956.97
2017-01-28T10:48:13.830Z,956.92
2017-01-28T10:49:12.926Z,956.97
2017-01-28T10:50:12.040Z,956.99
2017-01-28T10:51:12.629Z,956.97
2017-01-28T10:52:11.559Z,956.95
2017-01-28T10:53:13.179Z,956.96
2017-01-28T10:54:12.088Z,956.95
2017-01-28T10:55:12.108Z,956.98
2017-01-28T10:56:13.738Z,956.91
2017-01-28T10:57:12.190Z,956.97
2017-01-28T10:58:12.658Z,956.97
2017-01-28T10:59:13.184Z,956.95
2017-01-28T11:00:12.260Z,956.94
2017-01-28T11:01:12.359Z,956.90
2017-01-28T11:02:13.028Z,956.92
2017-01-28T11:03:12.667Z,956.89
2017-01-28T11:04:13.268Z,956.90
2017-01-28T11:05:12.344Z,956.89
2017-01-28T11:06:13.520Z,956.86
2017-01-28T11:07:12.735Z,956.88
2017-01-28T11:08:13.242Z,956.90
2017-01-28T11:09:13.387Z,956.84
2017-01-28T11:10:14.126Z,956.87
2017-01-28T11:11:12.554Z,956.84
2017-01-28T11:12:12.737Z,956.86
2017-01-28T11:13:12.754Z,956.87
2017-01-28T11:14:11.833Z,956.85
2017-01-28T11:15:11.798Z,956.79
2017-01-28T11:16:11.889Z,956.85
2017-01-28T11:17:12.531Z,956.84
2017-01-28T11:18:13.242Z,956.88
2017-01-28T11:19:11.284Z,956.87
2017-01-28T11:20:12.892Z,956.84
2017-01-28T11:21:12.062Z,956.85
2017-01-28T11:22:11.128Z,956.85
2017-01-28T11:23:12.788Z,956.89
2017-01-28T11:24:11.756Z,956.82
2017-01-28T11:25:11.764Z,956.91
2017-01-28T11:26:12.441Z,956.94
2017-01-28T11:27:13.006Z,956.89
2017-01-28T11:28:12.728Z,956.91
2017-01-28T11:29:12.814Z,956.98
2017-01-28T11:30:13.594Z,956.91
2017-01-28T11:31:12.665Z,956.94
2017-01-28T11:32:13.259Z,956.90
2017-01-28T11:33:12.927Z,956.89
2017-01-28T11:34:12.194Z,956.90
2017-01-28T11:35:12.398Z,956.94
2017-01-28T11:36:13.100Z,956.93
2017-01-28T11:37:10.361Z,956.94
2017-01-28T11:38:14.262Z,956.89
2017-01-28T11:39:12.302Z,956.93
2017-01-28T11:40:12.976Z,956.90
2017-01-28T11:41:12.642Z,956.88
2017-01-28T11:42:14.249Z,956.89
2017-01-28T11:43:12.824Z,956.87
2017-01-28T11:44:12.635Z,956.88
2017-01-28T11:45:13.473Z,956.85
2017-01-28T11:46:12.596Z,956.83
2017-01-28T11:47:12.443Z,956.83
2017-01-28T11:48:12.521Z,956.82
2017-01-28T11:49:14.099Z,956.77
2017-01-28T11:50:12.233Z,956.78
2017-01-28T11:51:12.883Z,956.81
2017-01-28T11:52:12.455Z,956.73
2017-01-28T11:53:14.761Z,956.69
2017-01-28T11:54:11.892Z,956.70
2017-01-28T11:55:11.235Z,956.70
2017-01-28T11:56:13.184Z,956.69
2017-01-28T11:57:12.337Z,956.71
2017-01-28T11:58:12.373Z,956.70
2017-01-28T11:59:13.267Z,956.71
2017-01-28T12:00:12.275Z,956.67
2017-01-28T12:01:11.118Z,956.63
2017-01-28T12:02:12.417Z,956.67
2017-01-28T12:03:13.152Z,956.68
2017-01-28T12:04:12.685Z,956.67
2017-01-28T12:05:13.598Z,956.67
2017-01-28T12:06:10.885Z,956.67
2017-01-28T12:07:13.736Z,956.64
2017-01-28T12:08:12.899Z,956.63
2017-01-28T12:09:11.945Z,956.58
2017-01-28T12:10:11.814Z,956.59
2017-01-28T12:11:13.454Z,956.59
2017-01-28T12:12:12.391Z,956.54
2017-01-28T12:13:12.691Z,956.55
2017-01-28T12:14:13.441Z,956.56
2017-01-28T12:15:13.065Z,956.53
2017-01-28T12:16:12.494Z,956.53
2017-01-28T12:17:10.939Z,956.51
2017-01-28T12:18:12.676Z,956.48
2017-01-28T12:19:13.461Z,956.40
2017-01-28T12:20:12.267Z,956.41
2017-01-28T12:21:11.290Z,956.45
2017-01-28T12:22:12.242Z,956.41
2017-01-28T12:23:13.760Z,956.40
2017-01-28T12:24:12.336Z,956.39
2017-01-28T12:25:13.023Z,956.44
2017-01-28T12:26:12.764Z,956.42
2017-01-28T12:27:14.302Z,956.44
2017-01-28T12:28:12.398Z,956.37